createdAt,value
2022-12-19T00:01:37.036Z,-2.84
2022-12-19T00:04:08.850Z,-2.88
2022-12-19T00:06:38.083Z,-2.87
2022-12-19T00:09:10.412Z,-2.82
2022-12-19T00:11:38.807Z,-2.90
2022-12-19T00:14:06.405Z,-2.75
2022-12-19T00:16:33.296Z,-2.82
2022-12-19T00:19:01.441Z,-2.84
2022-12-19T00:21:34.044Z,-2.88
2022-12-19T00:24:03.255Z,-2.84
2022-12-19T00:26:34.973Z,-2.88
2022-12-19T00:29:09.828Z,-2.80
2022-12-19T00:31:39.446Z,-2.78
2022-12-19T00:34:06.242Z,-2.83
2022-12-19T00:36:34.489Z,-2.76
2022-12-19T00:39:05.677Z,-2.67
2022-12-19T00:41:37.621Z,-2.65
2022-12-19T00:44:13.792Z,-2.71
2022-12-19T00:46:40.685Z,-2.77
2022-12-19T00:49:07.482Z,-2.75
2022-12-19T00:51:37.176Z,-2.74
2022-12-19T00:54:05.496Z,-2.70
2022-12-19T00:56:37.187Z,-2.69
2022-12-19T00:59:04.205Z,-2.71
2022-12-19T01:01:34.808Z,-2.67
2022-12-19T01:04:28.054Z,-2.71
2022-12-19T01:06:51.499Z,-2.72
2022-12-19T01:09:18.822Z,-2.70
2022-12-19T01:12:04.416Z,-2.72
2022-12-19T01:14:31.193Z,-2.67
2022-12-19T01:16:57.932Z,-2.63
2022-12-19T01:19:26.862Z,-2.63
2022-12-19T01:21:53.736Z,-2.55
2022-12-19T01:24:20.461Z,-2.58
2022-12-19T01:26:47.196Z,-2.59
2022-12-19T01:29:14.130Z,-2.51
2022-12-19T01:31:40.950Z,-2.54
2022-12-19T01:34:07.772Z,-2.52
2022-12-19T01:36:40.077Z,-2.46
2022-12-19T01:39:07.674Z,-2.47
2022-12-19T01:41:35.564Z,-2.48
2022-12-19T01:44:07.886Z,-2.45
2022-12-19T01:46:48.502Z,-2.45
2022-12-19T01:49:25.639Z,-2.37
2022-12-19T01:51:56.124Z,-2.48
2022-12-19T01:54:29.246Z,-2.43
2022-12-19T01:56:58.984Z,-2.43
2022-12-19T01:59:37.716Z,-2.45
2022-12-19T02:02:16.017Z,-2.44
2022-12-19T02:04:43.247Z,-2.32
2022-12-19T02:07:15.912Z,-2.25
2022-12-19T02:09:46.874Z,-2.41
2022-12-19T02:12:14.523Z,-2.37
2022-12-19T02:14:41.752Z,-2.34
2022-12-19T02:17:42.549Z,-2.30
2022-12-19T02:20:24.111Z,-2.29
2022-12-19T02:23:18.380Z,-2.26
2022-12-19T02:26:06.836Z,-2.28
2022-12-19T02:29:15.978Z,-2.26
2022-12-19T02:32:19.724Z,-2.23
2022-12-19T02:35:31.932Z,-2.20
2022-12-19T02:38:36.877Z,-2.17
2022-12-19T02:41:25.051Z,-2.17
2022-12-19T02:43:58.928Z,-2.13
2022-12-19T02:46:27.641Z,-2.14
2022-12-19T02:48:54.795Z,-2.14
2022-12-19T02:51:21.539Z,-2.08
2022-12-19T02:53:48.631Z,-2.01
2022-12-19T02:56:46.080Z,-2.01
2022-12-19T02:59:57.271Z,-2.02
2022-12-19T03:02:40.898Z,-1.89
2022-12-19T03:05:24.902Z,-1.96
2022-12-19T03:08:28.253Z,-1.95
2022-12-19T03:11:02.396Z,-1.91
2022-12-19T03:13:46.635Z,-1.91
2022-12-19T03:16:14.265Z,-1.93
2022-12-19T03:18:41.698Z,-1.89
2022-12-19T03:21:32.740Z,-1.84
2022-12-19T03:23:59.673Z,-1.89
2022-12-19T03:26:32.715Z,-1.87
2022-12-19T03:29:13.535Z,-1.76
2022-12-19T03:31:42.081Z,-1.83
2022-12-19T03:34:22.600Z,-1.85
2022-12-19T03:36:56.668Z,-1.80
2022-12-19T03:39:25.532Z,-1.68
2022-12-19T03:42:12.254Z,-1.69
2022-12-19T03:44:42.855Z,-1.71
2022-12-19T03:47:22.988Z,-1.72
2022-12-19T03:49:50.590Z,-1.68
2022-12-19T03:52:35.842Z,-1.66
2022-12-19T03:55:36.374Z,-1.57
2022-12-19T03:58:11.848Z,-1.62
2022-12-19T04:00:47.500Z,-1.64
2022-12-19T04:03:17.314Z,-1.59
2022-12-19T04:05:45.997Z,-1.51
2022-12-19T04:08:13.538Z,-1.43
2022-12-19T04:10:56.156Z,-1.39
2022-12-19T04:13:37.784Z,-1.45
2022-12-19T04:16:19.098Z,-1.37
2022-12-19T04:18:53.548Z,-1.30
2022-12-19T04:21:31.682Z,-1.34
2022-12-19T04:24:10.148Z,-1.24
2022-12-19T04:26:39.435Z,-1.21
2022-12-19T04:29:08.089Z,-1.17
2022-12-19T04:31:36.267Z,-1.16
2022-12-19T04:34:06.108Z,-1.13
2022-12-19T04:36:33.085Z,-1.13
2022-12-19T04:38:59.802Z,-1.11
2022-12-19T04:41:26.566Z,-1.04
2022-12-19T04:43:53.337Z,-1.07
2022-12-19T04:46:20.139Z,-0.98
2022-12-19T04:48:46.979Z,-0.93
2022-12-19T04:51:13.928Z,-0.88
2022-12-19T04:53:40.832Z,-0.85
2022-12-19T04:56:10.346Z,-0.78
2022-12-19T04:58:37.101Z,-0.83
2022-12-19T05:01:06.737Z,-0.80
2022-12-19T05:03:34.513Z,-0.75
2022-12-19T05:06:11.897Z,-0.76
2022-12-19T05:08:41.098Z,-0.67
2022-12-19T05:11:19.148Z,-0.71
2022-12-19T05:13:46.875Z,-0.67
2022-12-19T05:16:15.984Z,-0.68
2022-12-19T05:18:43.557Z,-0.57
2022-12-19T05:21:11.360Z,-0.65
2022-12-19T05:23:38.494Z,-0.58
2022-12-19T05:26:06.321Z,-0.54
2022-12-19T05:28:33.901Z,-0.51
2022-12-19T05:31:05.667Z,-0.50
2022-12-19T05:33:32.529Z,-0.48
2022-12-19T05:35:59.356Z,-0.48
2022-12-19T05:38:27.309Z,-0.47
2022-12-19T05:40:54.158Z,-0.38
2022-12-19T05:43:21.291Z,-0.35
2022-12-19T05:45:48.072Z,-0.36
2022-12-19T05:48:15.088Z,-0.34
2022-12-19T05:50:42.641Z,-0.26
2022-12-19T05:53:10.040Z,-0.28
2022-12-19T05:55:36.778Z,-0.35
2022-12-19T05:58:03.578Z,-0.29
2022-12-19T06:00:30.388Z,-0.30
2022-12-19T06:02:57.385Z,-0.24
2022-12-19T06:05:24.232Z,-0.17
2022-12-19T06:07:51.048Z,-0.17
2022-12-19T06:10:17.818Z,-0.12
2022-12-19T06:12:47.257Z,-0.16
2022-12-19T06:15:14.032Z,-0.10
2022-12-19T06:17:40.810Z,-0.06
2022-12-19T06:20:08.244Z,-0.04
2022-12-19T06:22:36.078Z,-0.03
2022-12-19T06:25:03.019Z,-0.03
2022-12-19T06:27:29.816Z,-0.10
2022-12-19T06:29:56.565Z,-0.04
2022-12-19T06:32:23.352Z,0.02
2022-12-19T06:35:05.404Z,-0.01
2022-12-19T06:37:32.290Z,0.03
2022-12-19T06:40:01.917Z,-0.07
2022-12-19T06:42:28.710Z,0.03
2022-12-19T06:44:56.604Z,-0.08
2022-12-19T06:47:24.419Z,0.09
2022-12-19T06:49:51.607Z,0.09
2022-12-19T06:52:18.488Z,0.08
2022-12-19T06:54:45.310Z,0.03
2022-12-19T06:57:12.184Z,0.06
2022-12-19T06:59:38.931Z,0.10
2022-12-19T07:02:30.526Z,0.14
2022-12-19T07:05:04.712Z,0.12
2022-12-19T07:07:31.982Z,0.13
2022-12-19T07:09:59.117Z,0.12
2022-12-19T07:12:26.505Z,0.16
2022-12-19T07:14:53.910Z,0.10
2022-12-19T07:17:22.803Z,0.01
2022-12-19T07:19:49.601Z,0.11
2022-12-19T07:22:16.507Z,0.13
2022-12-19T07:24:43.700Z,0.14
2022-12-19T07:27:10.615Z,0.16
2022-12-19T07:29:37.469Z,0.18
2022-12-19T07:32:04.489Z,0.09
2022-12-19T07:34:31.375Z,0.19
2022-12-19T07:36:58.130Z,0.13
2022-12-19T07:39:25.370Z,0.21
2022-12-19T07:41:52.127Z,0.22
2022-12-19T07:44:18.921Z,0.15
2022-12-19T07:46:45.745Z,0.27
2022-12-19T07:49:16.980Z,0.18
2022-12-19T07:51:46.493Z,0.24
2022-12-19T07:54:14.291Z,0.24
2022-12-19T07:56:41.008Z,0.24
2022-12-19T07:59:08.022Z,0.28
2022-12-19T08:01:34.890Z,0.32
2022-12-19T08:04:01.762Z,0.33
2022-12-19T08:06:28.772Z,0.28
2022-12-19T08:08:55.608Z,0.32
2022-12-19T08:11:27.272Z,0.32
2022-12-19T08:13:55.062Z,0.46
2022-12-19T08:16:22.858Z,0.50
2022-12-19T08:18:49.693Z,0.45
2022-12-19T08:21:16.853Z,0.43
2022-12-19T08:23:43.632Z,0.53
2022-12-19T08:26:17.752Z,0.53
2022-12-19T08:28:48.247Z,0.45
2022-12-19T08:31:17.969Z,0.61
2022-12-19T08:33:45.000Z,0.58
2022-12-19T08:36:15.357Z,0.66
2022-12-19T08:38:42.295Z,0.69
2022-12-19T08:41:09.665Z,0.70
2022-12-19T08:43:36.699Z,0.71
2022-12-19T08:46:03.736Z,0.70
2022-12-19T08:48:32.163Z,0.81
2022-12-19T08:51:02.581Z,0.85
2022-12-19T08:53:32.669Z,0.94
2022-12-19T08:56:09.879Z,0.96
2022-12-19T08:58:36.861Z,0.96
2022-12-19T09:01:09.137Z,0.94
2022-12-19T09:03:42.830Z,1.03
2022-12-19T09:06:23.708Z,1.05
2022-12-19T09:08:50.505Z,1.10
2022-12-19T09:11:19.803Z,1.07
2022-12-19T09:13:48.348Z,1.17
2022-12-19T09:16:23.615Z,1.19
2022-12-19T09:18:53.314Z,1.14
2022-12-19T09:21:23.400Z,1.26
2022-12-19T09:23:53.919Z,1.17
2022-12-19T09:26:23.158Z,1.22
2022-12-19T09:28:51.043Z,1.31
2022-12-19T09:31:22.551Z,1.38
2022-12-19T09:33:49.579Z,1.46
2022-12-19T09:36:23.216Z,1.56
2022-12-19T09:38:51.367Z,1.77
2022-12-19T09:41:51.757Z,1.86
2022-12-19T09:44:52.865Z,1.92
2022-12-19T09:47:31.822Z,2.03
2022-12-19T09:50:00.491Z,2.09
2022-12-19T09:52:45.373Z,2.19
2022-12-19T09:55:28.379Z,2.30
2022-12-19T09:58:04.722Z,2.36
2022-12-19T10:01:00.248Z,2.42
2022-12-19T10:03:30.533Z,2.57
2022-12-19T10:07:13.392Z,2.68
2022-12-19T10:11:45.744Z,2.72
2022-12-19T10:12:45.399Z,2.78
2022-12-19T10:15:43.961Z,2.78
2022-12-19T10:18:34.816Z,2.85
2022-12-19T10:21:07.935Z,2.88
2022-12-19T10:23:48.330Z,2.89
2022-12-19T10:26:34.580Z,2.86
2022-12-19T10:29:41.764Z,2.95
2022-12-19T10:32:36.917Z,2.94
2022-12-19T10:35:16.116Z,2.90
2022-12-19T10:37:56.753Z,2.87
2022-12-19T10:40:29.300Z,2.84
2022-12-19T10:43:44.072Z,2.97
2022-12-19T10:46:20.301Z,2.96
2022-12-19T10:48:51.587Z,3.03
2022-12-19T10:51:30.645Z,3.12
2022-12-19T10:54:00.356Z,3.02
2022-12-19T10:56:37.267Z,2.97
2022-12-19T10:59:21.299Z,2.99
2022-12-19T11:01:48.653Z,3.03
2022-12-19T11:04:34.660Z,3.05
2022-12-19T11:07:04.075Z,3.05
2022-12-19T11:09:41.913Z,2.97
2022-12-19T11:15:50.379Z,3.01
2022-12-19T11:20:36.403Z,3.12
2022-12-19T11:21:03.847Z,3.07
2022-12-19T11:29:34.556Z,3.19
2022-12-19T11:29:36.496Z,3.17
2022-12-19T11:30:48.856Z,3.22
2022-12-19T11:32:45.406Z,3.27
2022-12-19T11:35:37.047Z,3.31
2022-12-19T11:38:08.485Z,3.35
2022-12-19T11:40:56.059Z,3.30
2022-12-19T11:43:46.140Z,3.44
2022-12-19T11:46:24.967Z,3.48
2022-12-19T11:49:13.349Z,3.51
2022-12-19T11:52:29.445Z,3.54
2022-12-19T11:55:04.764Z,3.41
2022-12-19T11:57:32.158Z,3.46
2022-12-19T12:00:04.707Z,3.42
2022-12-19T12:03:04.631Z,3.46
2022-12-19T12:05:51.417Z,3.31
2022-12-19T12:11:38.296Z,3.31
2022-12-19T12:22:51.278Z,3.36
2022-12-19T12:25:13.318Z,3.39
2022-12-19T12:31:01.217Z,3.33
2022-12-19T12:31:09.104Z,3.32
2022-12-19T12:32:05.071Z,3.34
2022-12-19T12:32:05.402Z,3.34
2022-12-19T12:35:34.262Z,3.42
2022-12-19T12:38:40.563Z,3.51
2022-12-19T12:41:12.378Z,3.56
2022-12-19T12:44:09.317Z,3.69
2022-12-19T12:46:46.914Z,3.72
2022-12-19T12:49:42.446Z,3.83
2022-12-19T12:52:39.579Z,3.83
2022-12-19T12:55:18.354Z,3.83
2022-12-19T12:57:45.165Z,3.81
2022-12-19T13:00:31.582Z,3.85
2022-12-19T13:03:04.726Z,3.85
2022-12-19T13:05:46.728Z,3.85
2022-12-19T13:08:44.875Z,3.78
2022-12-19T13:11:39.287Z,3.67
2022-12-19T13:14:45.893Z,3.57
2022-12-19T13:17:47.600Z,3.66
2022-12-19T13:20:19.101Z,3.68
2022-12-19T13:22:59.347Z,3.68
2022-12-19T13:25:36.159Z,3.65
2022-12-19T13:28:02.830Z,3.61
2022-12-19T13:30:31.558Z,3.40
2022-12-19T13:33:01.225Z,3.46
2022-12-19T13:39:46.497Z,3.46
2022-12-19T13:39:54.015Z,3.36
2022-12-19T13:41:48.729Z,3.32
2022-12-19T13:44:21.943Z,3.20
2022-12-19T13:46:49.845Z,3.20
2022-12-19T13:49:34.133Z,3.29
2022-12-19T13:52:05.007Z,3.28
2022-12-19T13:54:45.678Z,3.25
2022-12-19T13:57:32.810Z,3.24
2022-12-19T14:00:09.981Z,3.23
2022-12-19T14:02:55.090Z,3.19
2022-12-19T14:06:17.424Z,3.16
2022-12-19T14:08:25.728Z,3.16
2022-12-19T14:11:47.509Z,3.19
2022-12-19T14:14:17.669Z,3.25
2022-12-19T14:16:48.869Z,3.15
2022-12-19T14:19:25.235Z,3.27
2022-12-19T14:22:09.023Z,3.22
2022-12-19T14:24:40.575Z,3.20
2022-12-19T14:28:21.196Z,3.19
2022-12-19T14:30:30.406Z,3.20
2022-12-19T14:33:46.308Z,3.10
2022-12-19T14:36:10.695Z,3.05
2022-12-19T14:39:24.939Z,3.06
2022-12-19T14:42:07.785Z,3.06
2022-12-19T14:52:35.435Z,3.02
2022-12-19T14:52:35.817Z,2.93
2022-12-19T14:54:34.889Z,2.78
2022-12-19T14:54:42.094Z,2.82
2022-12-19T14:56:36.302Z,2.64
2022-12-19T14:59:20.893Z,2.65
2022-12-19T15:02:27.608Z,2.61
2022-12-19T15:05:06.028Z,2.56
2022-12-19T15:07:34.420Z,2.51
2022-12-19T15:11:08.579Z,2.44
2022-12-19T15:14:54.393Z,2.37
2022-12-19T15:16:30.741Z,2.30
2022-12-19T15:19:00.908Z,2.26
2022-12-19T15:21:30.454Z,2.17
2022-12-19T15:23:57.479Z,2.13
2022-12-19T15:26:34.843Z,2.08
2022-12-19T15:29:03.342Z,2.02
2022-12-19T15:31:40.482Z,1.93
2022-12-19T15:34:36.826Z,1.87
2022-12-19T15:37:05.018Z,1.68
2022-12-19T15:39:32.132Z,1.73
2022-12-19T15:42:00.513Z,1.73
2022-12-19T15:44:40.148Z,1.65
2022-12-19T15:47:20.085Z,1.66
2022-12-19T15:49:47.576Z,1.53
2022-12-19T15:52:18.762Z,1.53
2022-12-19T15:54:49.423Z,1.51
2022-12-19T15:57:42.055Z,1.43
2022-12-19T16:00:19.863Z,1.39
2022-12-19T16:05:34.778Z,1.32
2022-12-19T16:08:01.615Z,1.27
2022-12-19T16:10:28.716Z,1.20
2022-12-19T16:12:57.867Z,1.19
2022-12-19T16:15:34.447Z,1.15
2022-12-19T16:18:03.852Z,1.08
2022-12-19T16:20:36.214Z,1.03
2022-12-19T16:23:03.151Z,1.03
2022-12-19T16:25:36.937Z,1.06
2022-12-19T16:28:06.136Z,1.04
2022-12-19T16:30:35.245Z,1.03
2022-12-19T16:33:02.381Z,0.93
2022-12-19T16:36:02.524Z,0.95
2022-12-19T16:38:17.868Z,0.88
2022-12-19T16:40:45.773Z,0.90
2022-12-19T16:43:24.245Z,0.91
2022-12-19T16:45:51.837Z,0.89
2022-12-19T16:48:27.649Z,0.85
2022-12-19T16:50:54.428Z,0.83
2022-12-19T16:53:21.237Z,0.83
2022-12-19T16:55:50.197Z,0.81
2022-12-19T16:58:22.767Z,0.82
2022-12-19T17:00:52.093Z,0.71
2022-12-19T17:03:42.950Z,0.66
2022-12-19T17:06:22.936Z,0.71
2022-12-19T17:08:49.898Z,0.69
2022-12-19T17:11:23.670Z,0.74
2022-12-19T17:14:02.680Z,0.60
2022-12-19T17:16:31.212Z,0.72
2022-12-19T17:18:59.196Z,0.65
2022-12-19T17:21:26.049Z,0.59
2022-12-19T17:23:53.025Z,0.61
2022-12-19T17:26:19.876Z,0.59
2022-12-19T17:28:49.583Z,0.61
2022-12-19T17:31:24.801Z,0.60
2022-12-19T17:33:52.058Z,0.59
2022-12-19T17:36:24.832Z,0.52
2022-12-19T17:38:52.909Z,0.51
2022-12-19T17:41:19.766Z,0.43
2022-12-19T17:43:46.581Z,0.48
2022-12-19T17:46:22.237Z,0.47
2022-12-19T17:48:52.568Z,0.41
2022-12-19T17:51:22.419Z,0.44
2022-12-19T17:53:49.922Z,0.30
2022-12-19T17:56:20.687Z,0.30
2022-12-19T17:58:48.680Z,0.35
2022-12-19T18:01:23.956Z,0.36
2022-12-19T18:03:53.025Z,0.35
2022-12-19T18:06:20.732Z,0.32
2022-12-19T18:08:48.044Z,0.31
2022-12-19T18:11:24.780Z,0.33
2022-12-19T18:13:53.312Z,0.39
2022-12-19T18:16:26.264Z,0.32
2022-12-19T18:18:53.176Z,0.30
2022-12-19T18:21:24.231Z,0.33
2022-12-19T18:23:51.767Z,0.22
2022-12-19T18:26:18.657Z,0.22
2022-12-19T18:28:45.493Z,0.21
2022-12-19T18:31:20.398Z,0.25
2022-12-19T18:33:50.607Z,0.18
2022-12-19T18:36:23.532Z,0.16
2022-12-19T18:38:51.415Z,0.18
2022-12-19T18:41:20.173Z,0.12
2022-12-19T18:43:47.701Z,0.13
2022-12-19T18:46:26.376Z,0.09
2022-12-19T18:48:53.455Z,0.01
2022-12-19T18:51:23.335Z,-0.03
2022-12-19T18:53:51.009Z,0.04
2022-12-19T18:56:18.050Z,-0.07
2022-12-19T18:58:44.875Z,-0.06
2022-12-19T19:01:17.192Z,-0.02
2022-12-19T19:03:54.458Z,-0.12
2022-12-19T19:06:32.941Z,-0.16
2022-12-19T19:09:03.344Z,-0.13
2022-12-19T19:11:30.180Z,-0.09
2022-12-19T19:13:57.155Z,-0.17
2022-12-19T19:16:26.333Z,-0.06
2022-12-19T19:18:55.991Z,-0.13
2022-12-19T19:21:30.456Z,-0.13
2022-12-19T19:24:19.508Z,-0.17
2022-12-19T19:26:46.451Z,-0.15
2022-12-19T19:29:19.060Z,-0.18
2022-12-19T19:31:48.477Z,-0.23
2022-12-19T19:34:30.161Z,-0.19
2022-12-19T19:37:01.036Z,-0.20
2022-12-19T19:39:28.527Z,-0.30
2022-12-19T19:41:56.456Z,-0.30
2022-12-19T19:44:23.418Z,-0.29
2022-12-19T19:46:50.340Z,-0.25
2022-12-19T19:49:17.368Z,-0.29
2022-12-19T19:51:44.256Z,-0.38
2022-12-19T19:54:11.211Z,-0.30
2022-12-19T19:56:38.211Z,-0.35
2022-12-19T19:59:05.872Z,-0.48
2022-12-19T20:01:32.896Z,-0.52
2022-12-19T20:03:59.880Z,-0.48
2022-12-19T20:06:26.944Z,-0.64
2022-12-19T20:08:53.769Z,-0.55
2022-12-19T20:11:20.927Z,-0.56
2022-12-19T20:13:47.931Z,-0.56
2022-12-19T20:16:18.341Z,-0.51
2022-12-19T20:18:53.224Z,-0.50
2022-12-19T20:21:21.696Z,-0.57
2022-12-19T20:23:48.564Z,-0.67
2022-12-19T20:26:17.133Z,-0.55
2022-12-19T20:28:49.340Z,-0.51
2022-12-19T20:31:19.876Z,-0.54
2022-12-19T20:33:48.589Z,-0.57
2022-12-19T20:36:16.731Z,-0.55
2022-12-19T20:38:43.923Z,-0.61
2022-12-19T20:41:10.995Z,-0.56
2022-12-19T20:43:38.812Z,-0.58
2022-12-19T20:46:14.235Z,-0.64
2022-12-19T20:48:41.900Z,-0.74
2022-12-19T20:51:10.197Z,-0.80
2022-12-19T20:53:39.049Z,-0.81
2022-12-19T20:56:07.940Z,-0.82
2022-12-19T20:58:37.566Z,-0.78
2022-12-19T21:01:17.969Z,-0.81
2022-12-19T21:03:45.287Z,-0.94
2022-12-19T21:06:15.585Z,-0.94
2022-12-19T21:08:42.806Z,-0.84
2022-12-19T21:11:10.124Z,-0.87
2022-12-19T21:13:38.053Z,-0.85
2022-12-19T21:16:08.982Z,-0.80
2022-12-19T21:18:38.669Z,-0.81
2022-12-19T21:21:08.480Z,-0.84
2022-12-19T21:23:35.382Z,-0.89
2022-12-19T21:26:04.889Z,-0.88
2022-12-19T21:28:32.692Z,-0.94
2022-12-19T21:31:05.212Z,-0.80
2022-12-19T21:33:32.425Z,-0.83
2022-12-19T21:36:10.350Z,-0.84
2022-12-19T21:38:37.761Z,-0.83
2022-12-19T21:41:06.621Z,-0.88
2022-12-19T21:43:35.005Z,-0.89
2022-12-19T21:46:10.712Z,-0.91
2022-12-19T21:48:40.383Z,-0.93
2022-12-19T21:51:08.259Z,-0.94
2022-12-19T21:53:36.977Z,-0.96
2022-12-19T21:56:25.459Z,-1.01
2022-12-19T21:59:02.014Z,-0.97
2022-12-19T22:01:30.799Z,-0.96
2022-12-19T22:04:03.987Z,-1.04
2022-12-19T22:06:33.420Z,-0.94
2022-12-19T22:09:02.043Z,-0.90
2022-12-19T22:11:30.225Z,-0.91
2022-12-19T22:14:00.553Z,-0.91
2022-12-19T22:16:28.685Z,-0.94
2022-12-19T22:18:56.628Z,-0.92
2022-12-19T22:21:25.566Z,-0.98
2022-12-19T22:23:52.838Z,-0.93
2022-12-19T22:26:23.292Z,-0.91
2022-12-19T22:28:54.120Z,-0.99
2022-12-19T22:31:29.834Z,-0.98
2022-12-19T22:34:03.141Z,-0.99
2022-12-19T22:36:32.156Z,-1.01
2022-12-19T22:39:01.916Z,-0.86
2022-12-19T22:41:29.155Z,-0.91
2022-12-19T22:43:56.643Z,-0.94
2022-12-19T22:46:30.655Z,-0.85
2022-12-19T22:49:01.388Z,-0.86
2022-12-19T22:51:30.215Z,-0.90
2022-12-19T22:53:58.184Z,-0.95
2022-12-19T22:56:28.996Z,-0.89
2022-12-19T22:59:00.099Z,-0.88
2022-12-19T23:01:30.601Z,-0.86
2022-12-19T23:04:01.505Z,-0.91
2022-12-19T23:06:33.677Z,-0.89
2022-12-19T23:09:00.998Z,-0.93
2022-12-19T23:11:35.564Z,-0.86
2022-12-19T23:14:05.550Z,-0.90
2022-12-19T23:16:32.553Z,-0.98
2022-12-19T23:18:59.336Z,-0.89
2022-12-19T23:21:27.054Z,-0.92
2022-12-19T23:23:55.652Z,-0.83
2022-12-19T23:26:23.726Z,-0.87
2022-12-19T23:29:00.344Z,-0.84
2022-12-19T23:31:28.951Z,-0.86
2022-12-19T23:33:57.229Z,-0.92
2022-12-19T23:37:00.269Z,-0.89
2022-12-19T23:39:12.789Z,-0.90
2022-12-19T23:41:40.097Z,-0.88
2022-12-19T23:44:07.589Z,-0.81
2022-12-19T23:46:34.375Z,-0.81
2022-12-19T23:49:01.260Z,-0.85
2022-12-19T23:51:28.442Z,-0.81
2022-12-19T23:53:56.555Z,-0.94
2022-12-19T23:56:29.967Z,-0.90
2022-12-19T23:58:57.455Z,-0.83
